Depesze METAR lotnisk w Polsce

EPWA EPMO EPKK EPLL EPWR EPKT EPGD EPPO EPRZ EPSC EPLB EPBY EPZG EPSY EPCE EPDA EPDE EPIR EPKS EPLK EPLY EPMB EPMI EPMM EPNA EPOK EPPR EPPW EPRA EPSN EPTM

METAR – format kodowanego raportu o pogodzie używany w meteorologii lotniczej i prognozie pogody. METAR jest akronimem od ang. Meteorological Aerodrome Report. Typowy METAR zawiera informację o temperaturze, ciśnieniu, temperaturze punktu rosy, sile i kierunku wiatru, opadzie, pokrywie chmur, wysokości podstawy chmur, widzialności, lecz może zawierać też inne informacje (np. stan dróg startowych).

Postaw mi kawę na buycoffee.to

Warszawa-Okęcie (EPWA)

METAR = EPWA 221430Z 16006KT 9999 -RA BKN042 08/07 Q1001 NOSIG

STACJA........... EPWA - Warszawa-Okęcie (WAW)
POMIAR........... Thu Feb 22, 15:30 CET
WIATR............ południowo południowo-wschodni (SSE) z prędkością 11 km/h
WIDZIALNOŚĆ...... powyżej 10 kilometrów
WARUNKI.......... słaby: deszcz 
CHMURY........... zachmurzenie średnie (5/8-7/8)
TEMPERATURA...... 8°C
T.PUNKTU ROSY.... 7°C
WILGOTNOŚĆ....... 93%
T.ODCZUWALNA..... 6°C
CIŚNIENIE........ 1001 hPa
CIŚN.BEZWZGL..... 988 hPa
PROGNOZA......... bez nagłych zmian w ciągu 2h

Sprawdź też: Prognoza pogody Warszawa


Warszawa-Modlin (EPMO)

METAR = EPMO 221430Z 16010KT 130V190 8000 -RA BKN034 07/06 Q1000 RERA =

STACJA........... EPMO - Warszawa-Modlin (WMI)
POMIAR........... Thu Feb 22, 15:30 CET
WIATR............ południowo południowo-wschodni (SSE) z prędkością 19 km/h
WIDZIALNOŚĆ...... 8000 metrów
WARUNKI.......... słaby: deszcz 
CHMURY........... zachmurzenie średnie (5/8-7/8)
TEMPERATURA...... 7°C
T.PUNKTU ROSY.... 6°C
WILGOTNOŚĆ....... 93%
T.ODCZUWALNA..... 4°C
CIŚNIENIE........ 1000 hPa
CIŚN.BEZWZGL..... 987 hPa
WCZEŚNIEJ........ obserwowane były zjawiska: deszcz

Sprawdź też: Prognoza pogody Nowy Dwór Mazowiecki


Kraków-Balice (EPKK)

METAR = EPKK 221430Z 19013KT 9999 SCT053 12/01 Q1001

STACJA........... EPKK - Kraków-Balice (KRK)
POMIAR........... Thu Feb 22, 15:30 CET
WIATR............ południowy (S) z prędkością 24 km/h
WIDZIALNOŚĆ...... powyżej 10 kilometrów
CHMURY........... zachmurzenie małe (3/8-4/8)
TEMPERATURA...... 12°C
T.PUNKTU ROSY.... 1°C
WILGOTNOŚĆ....... 47%
CIŚNIENIE........ 1001 hPa
CIŚN.BEZWZGL..... 973 hPa

Sprawdź też: Prognoza pogody Kraków


Łódź-Lublinek (EPLL)

METAR = EPLL 221430Z 15006KT 120V200 9999 -RA BKN036 OVC044 07/06 Q0999

STACJA........... EPLL - Łódź-Lublinek (LCJ)
POMIAR........... Thu Feb 22, 15:30 CET
WIATR............ południowo południowo-wschodni (SSE) z prędkością 11 km/h
WIDZIALNOŚĆ...... powyżej 10 kilometrów
WARUNKI.......... słaby: deszcz 
CHMURY........... zachmurzenie całkowite (8/8)
TEMPERATURA...... 7°C
T.PUNKTU ROSY.... 6°C
WILGOTNOŚĆ....... 93%
T.ODCZUWALNA..... 5°C
CIŚNIENIE........ 999 hPa
CIŚN.BEZWZGL..... 977 hPa

Sprawdź też: Prognoza pogody Łódź


Wrocław-Strachowice (EPWR)

METAR = EPWR 221430Z 17015KT 9999 -RA SCT037 10/05 Q0997

STACJA........... EPWR - Wrocław-Strachowice (WRO)
POMIAR........... Thu Feb 22, 15:30 CET
WIATR............ południowy (S) z prędkością 28 km/h
WIDZIALNOŚĆ...... powyżej 10 kilometrów
WARUNKI.......... słaby: deszcz 
CHMURY........... zachmurzenie małe (3/8-4/8)
TEMPERATURA...... 10°C
T.PUNKTU ROSY.... 5°C
WILGOTNOŚĆ....... 71%
T.ODCZUWALNA..... 7°C
CIŚNIENIE........ 997 hPa
CIŚN.BEZWZGL..... 982 hPa

Sprawdź też: Prognoza pogody Wrocław


Katowice-Pyrzowice (EPKT)

METAR = EPKT 221430Z 21015KT 9999 FEW041 10/02 Q1000

STACJA........... EPKT - Katowice-Pyrzowice (KTW)
POMIAR........... Thu Feb 22, 15:30 CET
WIATR............ południowo południowo-zachodni  (SSW) z prędkością 28 km/h
WIDZIALNOŚĆ...... powyżej 10 kilometrów
CHMURY........... zachmurzenie niewielkie (1/8-2/8)
TEMPERATURA...... 10°C
T.PUNKTU ROSY.... 2°C
WILGOTNOŚĆ....... 58%
T.ODCZUWALNA..... 7°C
CIŚNIENIE........ 1000 hPa
CIŚN.BEZWZGL..... 964 hPa

Sprawdź też: Prognoza pogody Katowice


Gdańsk (EPGD)

METAR = EPGD 221430Z 16010KT 9999 -RA BKN020 08/05 Q0994

STACJA........... EPGD - Gdańsk im. Lecha Wałęsy (GDN)
POMIAR........... Thu Feb 22, 15:30 CET
WIATR............ południowo południowo-wschodni (SSE) z prędkością 19 km/h
WIDZIALNOŚĆ...... powyżej 10 kilometrów
WARUNKI.......... słaby: deszcz 
CHMURY........... zachmurzenie średnie (5/8-7/8)
TEMPERATURA...... 8°C
T.PUNKTU ROSY.... 5°C
WILGOTNOŚĆ....... 82%
T.ODCZUWALNA..... 5°C
CIŚNIENIE........ 994 hPa
CIŚN.BEZWZGL..... 976 hPa

Sprawdź też: Prognoza pogody Gdańsk


Poznań-Ławica (EPPO)

METAR = EPPO 221430Z 16009KT 9999 -RA OVC007 09/08 Q0994

STACJA........... EPPO - Poznań-Ławica (POZ)
POMIAR........... Thu Feb 22, 15:30 CET
WIATR............ południowo południowo-wschodni (SSE) z prędkością 17 km/h
WIDZIALNOŚĆ...... powyżej 10 kilometrów
WARUNKI.......... słaby: deszcz 
CHMURY........... zachmurzenie całkowite (8/8)
TEMPERATURA...... 9°C
T.PUNKTU ROSY.... 8°C
WILGOTNOŚĆ....... 94%
T.ODCZUWALNA..... 6°C
CIŚNIENIE........ 994 hPa
CIŚN.BEZWZGL..... 983 hPa

Sprawdź też: Prognoza pogody Poznań


Rzeszów-Jasionka (EPRZ)

METAR = EPRZ 221430Z 21014KT 170V230 CAVOK 09/01 Q1005

STACJA........... EPRZ - Rzeszów-Jasionka (RZE)
POMIAR........... Thu Feb 22, 15:30 CET
WIATR............ południowo południowo-zachodni  (SSW) z prędkością 26 km/h
WIDZIALNOŚĆ...... powyżej 10 kilometrów
CHMURY........... bezchmurne niebo
TEMPERATURA...... 9°C
T.PUNKTU ROSY.... 1°C
WILGOTNOŚĆ....... 58%
T.ODCZUWALNA..... 6°C
CIŚNIENIE........ 1005 hPa
CIŚN.BEZWZGL..... 980 hPa

Sprawdź też: Prognoza pogody Rzeszów


Szczecin-Goleniów (EPSC)

METAR = EPSC 221430Z 15009KT 9999 -RA OVC004 08/08 Q0991

STACJA........... EPSC - Szczecin-Goleniów (SZZ)
POMIAR........... Thu Feb 22, 15:30 CET
WIATR............ południowo południowo-wschodni (SSE) z prędkością 17 km/h
WIDZIALNOŚĆ...... powyżej 10 kilometrów
WARUNKI.......... słaby: deszcz 
CHMURY........... zachmurzenie całkowite (8/8)
TEMPERATURA...... 8°C
T.PUNKTU ROSY.... 8°C
WILGOTNOŚĆ....... 100%
T.ODCZUWALNA..... 5°C
CIŚNIENIE........ 991 hPa
CIŚN.BEZWZGL..... 985 hPa

Sprawdź też: Prognoza pogody Szczecin


Lublin-Świdnik (EPLB)

METAR = EPLB 221430Z 19011KT 9999 -RA NSC 10/04 Q1004 =

STACJA........... EPLB - Lublin-Świdnik (LUZ)
POMIAR........... Thu Feb 22, 15:30 CET
WIATR............ południowy (S) z prędkością 20 km/h
WIDZIALNOŚĆ...... powyżej 10 kilometrów
WARUNKI.......... słaby: deszcz 
CHMURY........... brak istotnych chmur
TEMPERATURA...... 10°C
T.PUNKTU ROSY.... 4°C
WILGOTNOŚĆ....... 67%
T.ODCZUWALNA..... 7°C
CIŚNIENIE........ 1004 hPa
CIŚN.BEZWZGL..... 980 hPa

Sprawdź też: Prognoza pogody Lublin


Bydgoszcz-Szwederowo (EPBY)

METAR = EPBY 221430Z 17009KT 8000 -RA BKN006 08/07 Q0995

STACJA........... EPBY - Bydgoszcz-Szwederowo (BZG)
POMIAR........... Thu Feb 22, 15:30 CET
WIATR............ południowy (S) z prędkością 17 km/h
WIDZIALNOŚĆ...... 8000 metrów
WARUNKI.......... słaby: deszcz 
CHMURY........... zachmurzenie średnie (5/8-7/8)
TEMPERATURA...... 8°C
T.PUNKTU ROSY.... 7°C
WILGOTNOŚĆ....... 93%
T.ODCZUWALNA..... 5°C
CIŚNIENIE........ 995 hPa
CIŚN.BEZWZGL..... 986 hPa

Sprawdź też: Prognoza pogody Bydgoszcz


Zielona Góra-Babimost (EPZG)

METAR = EPZG 221430Z 17008KT 9999 SCT018 BKN028 OVC032 10/10 Q0994 =

STACJA........... EPZG - Zielona Góra-Babimost (IEG)
POMIAR........... Thu Feb 22, 15:30 CET
WIATR............ południowy (S) z prędkością 15 km/h
WIDZIALNOŚĆ...... powyżej 10 kilometrów
CHMURY........... zachmurzenie całkowite (8/8)
TEMPERATURA...... 10°C
T.PUNKTU ROSY.... 10°C
WILGOTNOŚĆ....... 100%
T.ODCZUWALNA..... 8°C
CIŚNIENIE........ 994 hPa
CIŚN.BEZWZGL..... 987 hPa

Sprawdź też: Prognoza pogody Zielona Góra


Szymany Olsztyn-Mazury (EPSY)

METAR = EPSY 221430Z 16010KT 130V190 9999 FEW025 BKN037 08/04 Q0999=

STACJA........... EPSY - Olsztyn-Mazury (SZY)
POMIAR........... Thu Feb 22, 15:30 CET
WIATR............ południowo południowo-wschodni (SSE) z prędkością 19 km/h
WIDZIALNOŚĆ...... powyżej 10 kilometrów
CHMURY........... zachmurzenie średnie (5/8-7/8)
TEMPERATURA...... 8°C
T.PUNKTU ROSY.... 4°C
WILGOTNOŚĆ....... 76%
T.ODCZUWALNA..... 5°C
CIŚNIENIE........ 999 hPa
CIŚN.BEZWZGL..... 982 hPa

Sprawdź też: Prognoza pogody Olsztyn


Cewice (EPCE)

METAR = 

STACJA........... EPCE - Cewice
POMIAR........... Thu Jan 1, 02:00 CET
BŁĄD............. Dane niedostępne.

Darłowo (EPDA)

METAR = 

STACJA........... EPDA - Darłowo
POMIAR........... Thu Jan 1, 02:00 CET
BŁĄD............. Dane niedostępne.

Dęblin (EPDE)

METAR = 

STACJA........... EPDE - Dęblin
POMIAR........... Thu Jan 1, 02:00 CET
BŁĄD............. Dane niedostępne.

Inowrocław-Latkowo (EPIR)

METAR = 

STACJA........... EPIR - Inowrocław-Latkowo
POMIAR........... Thu Jan 1, 02:00 CET
BŁĄD............. Dane niedostępne.

Poznań-Krzesiny (EPKS)

METAR = 

STACJA........... EPKS - Poznań-Krzesiny
POMIAR........... Thu Jan 1, 02:00 CET
BŁĄD............. Dane niedostępne.

Łask (EPLK)

METAR = 

STACJA........... EPLK - Łask
POMIAR........... Thu Jan 1, 02:00 CET
BŁĄD............. Dane niedostępne.

Łęczyca (EPLY)

METAR = 

STACJA........... EPLY - Łęczyca
POMIAR........... Thu Jan 1, 02:00 CET
BŁĄD............. Dane niedostępne.

Malbork (EPMB)

METAR = 

STACJA........... EPMB - Malbork
POMIAR........... Thu Jan 1, 02:00 CET
BŁĄD............. Dane niedostępne.

Mirosławiec (EPMI)

METAR = 

STACJA........... EPMI - Mirosławiec
POMIAR........... Thu Jan 1, 02:00 CET
BŁĄD............. Dane niedostępne.

Mińsk Mazowiecki (EPMM)

METAR = 

STACJA........... EPMM - Mińsk Mazowiecki
POMIAR........... Thu Jan 1, 02:00 CET
BŁĄD............. Dane niedostępne.

Nadarzyce (EPNA)

METAR = 

STACJA........... EPNA - Nadarzyce
POMIAR........... Thu Jan 1, 02:00 CET
BŁĄD............. Dane niedostępne.

Gdynia-Kosakowo (EPOK)

METAR = 

STACJA........... EPOK - Gdynia-Kosakowo
POMIAR........... Thu Jan 1, 02:00 CET
BŁĄD............. Dane niedostępne.

Pruszcz Gdański (EPPR)

METAR = 

STACJA........... EPPR - Pruszcz Gdański
POMIAR........... Thu Jan 1, 02:00 CET
BŁĄD............. Dane niedostępne.

Powidz (EPPW)

METAR = 

STACJA........... EPPW - Powidz
POMIAR........... Thu Jan 1, 02:00 CET
BŁĄD............. Dane niedostępne.

Radom-Sadków (EPRA)

METAR = EPRA 221430Z 16008KT CAVOK 09/04 Q1001

STACJA........... EPRA - Radom-Sadków
POMIAR........... Thu Feb 22, 15:30 CET
WIATR............ południowo południowo-wschodni (SSE) z prędkością 15 km/h
WIDZIALNOŚĆ...... powyżej 10 kilometrów
CHMURY........... bezchmurne niebo
TEMPERATURA...... 9°C
T.PUNKTU ROSY.... 4°C
WILGOTNOŚĆ....... 71%
T.ODCZUWALNA..... 7°C
CIŚNIENIE........ 1001 hPa
CIŚN.BEZWZGL..... 979 hPa

Świdwin (EPSN)

METAR = 

STACJA........... EPSN - Świdwin
POMIAR........... Thu Jan 1, 02:00 CET
BŁĄD............. Dane niedostępne.

Tomaszów Mazowiecki (EPTM)

METAR = 

STACJA........... EPTM - Tomaszów Mazowiecki
POMIAR........... Thu Jan 1, 02:00 CET
BŁĄD............. Dane niedostępne.